Time;durP1;ratioP1;P1;durP2;ratioP2;P2;SDS_P1;SDS_P2;PMS_P1;PMS_P2;Temp;Humidity;BMP_temperature;BMP_pressure;BME280_temperature;BME280_humidity;BME280_pressure;Samples;Min_cycle;Max_cycle;Signal;HPM_P1;HPM_P2
2024/03/09 00:00:32;;;;;;;28.00;18.17;;;;;;;;;;5072907;28;20191;-69
2024/03/09 00:03:00;;;;;;;27.42;18.50;;;;;;;;;;5073130;28;20284;-70
2024/03/09 00:05:28;;;;;;;29.17;19.20;;;;;;;;;;5072274;28;20205;-69
2024/03/09 00:07:56;;;;;;;26.23;17.17;;;;;;;;;;5073021;28;20189;-69
2024/03/09 00:10:23;;;;;;;26.20;18.30;;;;;;;;;;5072873;28;20251;-69
2024/03/09 00:12:51;;;;;;;25.73;18.17;;;;;;;;;;5072829;28;20279;-69
2024/03/09 00:15:19;;;;;;;25.52;17.13;;;;;;;;;;5072957;28;20185;-69
2024/03/09 00:17:49;;;;;;;29.60;18.15;;;;;;;;;;5072944;28;20193;-69
2024/03/09 00:20:19;;;;;;;30.52;17.70;;;;;;;;;;5072675;28;20200;-69
2024/03/09 00:22:46;;;;;;;24.95;18.42;;;;;;;;;;5072932;28;20200;-69
2024/03/09 00:25:13;;;;;;;29.17;17.92;;;;;;;;;;5072722;28;20185;-69
2024/03/09 00:27:40;;;;;;;24.15;17.55;;;;;;;;;;5072601;28;20272;-69
2024/03/09 00:30:10;;;;;;;31.60;18.75;;;;;;;;;;5072825;28;20216;-69
2024/03/09 00:32:38;;;;;;;29.92;18.50;;;;;;;;;;5072959;28;20199;-69
2024/03/09 00:35:07;;;;;;;27.40;17.65;;;;;;;;;;5072689;28;20189;-70
2024/03/09 00:37:36;;;;;;;31.40;19.23;;;;;;;;;;5072616;28;20276;-69
2024/03/09 00:40:04;;;;;;;33.95;20.70;;;;;;;;;;5072383;28;20275;-69
2024/03/09 00:42:32;;;;;;;28.95;18.73;;;;;;;;;;5072711;28;20185;-69
2024/03/09 00:45:04;;;;;;;37.60;22.13;;;;;;;;;;5072689;28;20189;-69
2024/03/09 00:47:32;;;;;;;29.30;18.63;;;;;;;;;;5072598;28;20553;-69
2024/03/09 00:49:59;;;;;;;27.20;17.88;;;;;;;;;;5072397;28;20282;-69
2024/03/09 00:52:27;;;;;;;26.00;17.45;;;;;;;;;;5072418;28;20247;-69
2024/03/09 00:54:54;;;;;;;29.73;19.42;;;;;;;;;;5072377;28;20189;-69
2024/03/09 00:57:21;;;;;;;30.88;19.02;;;;;;;;;;5072557;28;20189;-70
2024/03/09 00:59:48;;;;;;;29.70;19.08;;;;;;;;;;5072440;28;20276;-70
2024/03/09 01:02:15;;;;;;;32.67;21.52;;;;;;;;;;5072443;28;20272;-69
2024/03/09 01:04:42;;;;;;;33.15;19.85;;;;;;;;;;5072344;28;20280;-69
2024/03/09 01:07:10;;;;;;;31.95;20.10;;;;;;;;;;5072277;28;20622;-69
2024/03/09 01:09:38;;;;;;;35.15;21.73;;;;;;;;;;5072508;28;20185;-69
2024/03/09 01:12:06;;;;;;;32.88;21.02;;;;;;;;;;5072425;28;20189;-69
2024/03/09 01:14:33;;;;;;;28.90;19.05;;;;;;;;;;5072357;28;20291;-69
2024/03/09 01:17:00;;;;;;;32.45;19.88;;;;;;;;;;5074992;28;20243;-69
2024/03/09 01:19:27;;;;;;;33.40;21.13;;;;;;;;;;5075819;28;20204;-69
2024/03/09 01:21:59;;;;;;;33.33;20.90;;;;;;;;;;5075741;28;20192;-69
2024/03/09 01:24:26;;;;;;;28.92;18.30;;;;;;;;;;5075867;28;20190;-69
2024/03/09 01:26:55;;;;;;;28.80;19.38;;;;;;;;;;5076077;28;20220;-69
2024/03/09 01:29:23;;;;;;;29.83;19.58;;;;;;;;;;5075713;28;20530;-69
2024/03/09 01:31:51;;;;;;;33.97;21.35;;;;;;;;;;5075444;28;20213;-69
2024/03/09 01:34:18;;;;;;;32.53;20.85;;;;;;;;;;5075385;28;20201;-69
2024/03/09 01:36:45;;;;;;;34.22;22.67;;;;;;;;;;5075727;28;20189;-69
2024/03/09 01:39:12;;;;;;;33.58;21.95;;;;;;;;;;5075541;28;20248;-69
2024/03/09 01:41:39;;;;;;;32.45;21.73;;;;;;;;;;5075503;28;20189;-69
2024/03/09 01:44:09;;;;;;;34.95;21.67;;;;;;;;;;5075372;28;20199;-69
2024/03/09 01:46:36;;;;;;;35.78;21.15;;;;;;;;;;5075310;28;20553;-68
2024/03/09 01:49:03;;;;;;;37.42;21.85;;;;;;;;;;5075233;28;20189;-69
2024/03/09 01:51:30;;;;;;;36.88;24.85;;;;;;;;;;5075326;28;20221;-69
2024/03/09 01:53:57;;;;;;;34.42;23.10;;;;;;;;;;5075280;28;20280;-69
2024/03/09 01:56:25;;;;;;;36.33;20.77;;;;;;;;;;5075267;28;20197;-69
2024/03/09 01:58:52;;;;;;;36.25;22.73;;;;;;;;;;5075114;28;20221;-69
2024/03/09 02:01:25;;;;;;;34.72;22.33;;;;;;;;;;5074998;28;20185;-69
2024/03/09 02:03:53;;;;;;;34.28;22.77;;;;;;;;;;5075449;28;20196;-69
2024/03/09 02:06:22;;;;;;;38.92;22.77;;;;;;;;;;5075045;28;20189;-69
2024/03/09 02:08:49;;;;;;;47.05;23.30;;;;;;;;;;5074974;28;20193;-69
2024/03/09 02:11:16;;;;;;;39.72;23.08;;;;;;;;;;5074912;28;20304;-69
2024/03/09 02:13:43;;;;;;;35.72;23.10;;;;;;;;;;5074775;28;20279;-69
2024/03/09 02:16:12;;;;;;;33.20;21.42;;;;;;;;;;5075230;28;20208;-69
2024/03/09 02:18:40;;;;;;;34.85;22.58;;;;;;;;;;5074842;28;20238;-68
2024/03/09 02:21:09;;;;;;;37.58;22.67;;;;;;;;;;5074755;28;20289;-69
2024/03/09 02:23:36;;;;;;;36.50;23.75;;;;;;;;;;5074676;28;20250;-69
2024/03/09 02:26:05;;;;;;;45.00;24.30;;;;;;;;;;5074612;28;20225;-70
2024/03/09 02:28:32;;;;;;;38.80;24.05;;;;;;;;;;5073677;28;20189;-69
2024/03/09 02:31:00;;;;;;;39.97;24.10;;;;;;;;;;5074588;28;20217;-69
2024/03/09 02:33:27;;;;;;;40.35;24.30;;;;;;;;;;5074556;28;20200;-69
2024/03/09 02:35:54;;;;;;;36.97;23.45;;;;;;;;;;5074529;28;20195;-69
2024/03/09 02:38:22;;;;;;;40.38;23.52;;;;;;;;;;5074334;28;20189;-69
2024/03/09 02:40:49;;;;;;;41.55;23.95;;;;;;;;;;5074108;28;20307;-69
2024/03/09 02:43:18;;;;;;;40.17;23.70;;;;;;;;;;5074448;28;20201;-69
2024/03/09 02:45:45;;;;;;;36.20;23.73;;;;;;;;;;5074356;28;20280;-69
2024/03/09 02:48:12;;;;;;;43.63;24.35;;;;;;;;;;5074266;28;20189;-69
2024/03/09 02:50:40;;;;;;;36.95;23.60;;;;;;;;;;5073968;28;20564;-69
2024/03/09 02:53:07;;;;;;;39.22;24.52;;;;;;;;;;5074043;28;20200;-69
2024/03/09 02:55:35;;;;;;;43.30;25.80;;;;;;;;;;5073953;28;20227;-69
2024/03/09 02:58:02;;;;;;;38.60;24.77;;;;;;;;;;5074132;28;20276;-69
2024/03/09 03:00:31;;;;;;;40.55;23.63;;;;;;;;;;5073984;28;20728;-69
2024/03/09 03:05:43;;;;;;;43.40;27.15;;;;;;;;;;5073770;28;20726;-69
2024/03/09 03:08:11;;;;;;;42.92;26.17;;;;;;;;;;5073614;28;20186;-69
2024/03/09 03:10:39;;;;;;;42.53;24.48;;;;;;;;;;5073710;28;20213;-69
2024/03/09 03:13:08;;;;;;;41.67;24.65;;;;;;;;;;5073574;28;20757;-69
2024/03/09 03:15:38;;;;;;;43.03;25.88;;;;;;;;;;5073993;28;20532;-69
2024/03/09 03:18:07;;;;;;;44.80;27.35;;;;;;;;;;5073536;28;20284;-69
2024/03/09 03:20:34;;;;;;;44.17;25.55;;;;;;;;;;5073431;28;20195;-69
2024/03/09 03:23:02;;;;;;;43.58;25.15;;;;;;;;;;5073647;28;20281;-69
2024/03/09 03:25:29;;;;;;;42.47;24.77;;;;;;;;;;5073521;28;20295;-69
2024/03/09 03:27:56;;;;;;;43.72;26.33;;;;;;;;;;5073438;28;20200;-69
2024/03/09 03:30:24;;;;;;;44.58;25.67;;;;;;;;;;5073354;28;20193;-69
2024/03/09 03:32:53;;;;;;;40.25;24.80;;;;;;;;;;5073296;28;20198;-69
2024/03/09 03:35:20;;;;;;;43.08;25.05;;;;;;;;;;5073388;28;20276;-69
2024/03/09 03:37:47;;;;;;;48.05;27.33;;;;;;;;;;5073417;28;20193;-69
2024/03/09 03:40:15;;;;;;;43.38;27.02;;;;;;;;;;5073022;28;20275;-69
2024/03/09 03:42:42;;;;;;;39.22;24.23;;;;;;;;;;5073241;28;20189;-69
2024/03/09 03:45:11;;;;;;;44.33;26.30;;;;;;;;;;5073177;28;20200;-69
2024/03/09 03:47:38;;;;;;;44.75;26.65;;;;;;;;;;5072978;28;20276;-69
2024/03/09 03:50:08;;;;;;;44.83;25.77;;;;;;;;;;5073292;28;20197;-69
2024/03/09 03:52:38;;;;;;;44.47;26.50;;;;;;;;;;5073093;28;20217;-69
2024/03/09 03:55:11;;;;;;;44.95;25.55;;;;;;;;;;5073179;28;20204;-69
2024/03/09 03:57:38;;;;;;;44.58;26.05;;;;;;;;;;5072944;28;20649;-69
2024/03/09 04:00:09;;;;;;;43.75;24.88;;;;;;;;;;5072962;28;20216;-69
2024/03/09 04:02:36;;;;;;;44.88;26.35;;;;;;;;;;5073186;28;20292;-69
2024/03/09 04:05:03;;;;;;;46.53;28.52;;;;;;;;;;5073085;28;20276;-69
2024/03/09 04:07:31;;;;;;;48.55;26.63;;;;;;;;;;5072986;28;20185;-69
2024/03/09 04:10:01;;;;;;;44.67;26.95;;;;;;;;;;5072916;28;20723;-69
2024/03/09 04:12:29;;;;;;;48.78;27.40;;;;;;;;;;5072757;28;20596;-69
2024/03/09 04:14:57;;;;;;;42.08;25.73;;;;;;;;;;5072703;28;20645;-69
2024/03/09 04:17:24;;;;;;;45.83;26.05;;;;;;;;;;5072954;28;20726;-69
2024/03/09 04:19:51;;;;;;;46.78;27.17;;;;;;;;;;5072833;28;20193;-69
2024/03/09 04:22:18;;;;;;;47.85;29.20;;;;;;;;;;5072838;28;20200;-69
2024/03/09 04:24:46;;;;;;;49.47;28.00;;;;;;;;;;5072722;28;20193;-69
2024/03/09 04:27:13;;;;;;;45.13;26.85;;;;;;;;;;5072616;28;20197;-69
2024/03/09 04:29:42;;;;;;;51.42;28.65;;;;;;;;;;5072911;28;20537;-69
2024/03/09 04:32:09;;;;;;;42.67;26.63;;;;;;;;;;5072666;28;20311;-69
2024/03/09 04:34:38;;;;;;;51.40;27.98;;;;;;;;;;5072702;28;20200;-69
2024/03/09 04:37:06;;;;;;;44.97;27.30;;;;;;;;;;5072623;28;20235;-69
2024/03/09 04:39:38;;;;;;;47.03;30.17;;;;;;;;;;5072294;28;20216;-69
2024/03/09 04:42:07;;;;;;;53.15;29.92;;;;;;;;;;5072822;28;20295;-69
2024/03/09 04:44:34;;;;;;;49.97;26.88;;;;;;;;;;5072707;28;20189;-69
2024/03/09 04:47:01;;;;;;;50.80;28.60;;;;;;;;;;5072615;28;20599;-69
2024/03/09 04:49:29;;;;;;;47.20;27.40;;;;;;;;;;5072475;28;20255;-69
2024/03/09 04:51:57;;;;;;;47.60;27.75;;;;;;;;;;5075134;28;20227;-69
2024/03/09 04:54:24;;;;;;;50.63;28.92;;;;;;;;;;5076176;28;20193;-69
2024/03/09 04:56:51;;;;;;;49.60;28.52;;;;;;;;;;5076475;28;20658;-69
2024/03/09 04:59:19;;;;;;;52.10;28.70;;;;;;;;;;5076094;28;20665;-69
2024/03/09 05:01:46;;;;;;;50.45;29.02;;;;;;;;;;5076273;28;20276;-69
2024/03/09 05:04:14;;;;;;;53.10;28.60;;;;;;;;;;5076086;28;20272;-69
2024/03/09 05:06:41;;;;;;;48.78;28.60;;;;;;;;;;5075942;28;20189;-69
2024/03/09 05:09:09;;;;;;;51.78;29.73;;;;;;;;;;5076151;28;20196;-69
2024/03/09 05:11:36;;;;;;;49.38;27.83;;;;;;;;;;5076074;28;20299;-69
2024/03/09 05:14:03;;;;;;;50.17;27.88;;;;;;;;;;5075958;28;20272;-69
2024/03/09 05:16:32;;;;;;;53.25;29.25;;;;;;;;;;5075877;28;20185;-69
2024/03/09 05:18:59;;;;;;;46.30;27.85;;;;;;;;;;5075826;28;20193;-69
2024/03/09 05:21:28;;;;;;;50.10;29.70;;;;;;;;;;5075818;28;20284;-69
2024/03/09 05:23:55;;;;;;;44.95;28.65;;;;;;;;;;5075985;28;20193;-69
2024/03/09 05:26:23;;;;;;;49.10;30.15;;;;;;;;;;5075690;28;20195;-69
2024/03/09 05:28:50;;;;;;;46.63;29.25;;;;;;;;;;5076057;28;20186;-70
2024/03/09 05:31:26;;;;;;;40.92;27.25;;;;;;;;;;5075432;28;20664;-69
2024/03/09 05:33:54;;;;;;;54.72;29.83;;;;;;;;;;5075546;28;20532;-69
2024/03/09 05:36:21;;;;;;;45.78;26.58;;;;;;;;;;5075813;28;20203;-69
2024/03/09 05:38:49;;;;;;;48.90;30.10;;;;;;;;;;5075425;28;20189;-69
2024/03/09 05:41:16;;;;;;;51.55;29.13;;;;;;;;;;5075639;28;20224;-69
2024/03/09 05:43:44;;;;;;;45.65;28.35;;;;;;;;;;5075524;28;20221;-69
2024/03/09 05:46:14;;;;;;;47.67;29.95;;;;;;;;;;5075292;28;20186;-69
2024/03/09 05:48:42;;;;;;;50.03;29.50;;;;;;;;;;5075224;28;20301;-70
2024/03/09 05:51:11;;;;;;;48.50;28.75;;;;;;;;;;5075261;28;20197;-69
2024/03/09 05:53:38;;;;;;;52.80;30.50;;;;;;;;;;5075407;28;20186;-69
2024/03/09 05:56:06;;;;;;;48.20;29.58;;;;;;;;;;5075273;28;20300;-69
2024/03/09 05:58:33;;;;;;;48.33;29.20;;;;;;;;;;5075110;28;20204;-69
2024/03/09 06:01:00;;;;;;;51.78;29.63;;;;;;;;;;5074994;28;20212;-69
2024/03/09 06:03:27;;;;;;;49.70;30.52;;;;;;;;;;5074131;28;20193;-69
2024/03/09 06:05:54;;;;;;;49.80;30.27;;;;;;;;;;5074942;28;20216;-69
2024/03/09 06:08:22;;;;;;;58.03;30.83;;;;;;;;;;5075028;28;20199;-69
2024/03/09 06:10:49;;;;;;;48.58;29.40;;;;;;;;;;5074947;28;20568;-69
2024/03/09 06:13:18;;;;;;;58.25;31.65;;;;;;;;;;5074735;28;20577;-69
2024/03/09 06:15:46;;;;;;;51.78;30.70;;;;;;;;;;5074705;28;20641;-69
2024/03/09 06:18:14;;;;;;;52.17;31.20;;;;;;;;;;5074836;28;20236;-69
2024/03/09 06:20:43;;;;;;;55.85;31.08;;;;;;;;;;5074613;28;20661;-69
2024/03/09 06:23:11;;;;;;;51.38;28.75;;;;;;;;;;5074662;28;20284;-69
2024/03/09 06:25:40;;;;;;;50.78;30.05;;;;;;;;;;5074661;28;20185;-69
2024/03/09 06:28:08;;;;;;;56.78;30.77;;;;;;;;;;5074537;28;20189;-69
2024/03/09 06:30:37;;;;;;;49.80;29.33;;;;;;;;;;5074679;28;20196;-69
2024/03/09 06:33:04;;;;;;;58.17;31.67;;;;;;;;;;5074442;28;20216;-69
2024/03/09 06:35:32;;;;;;;52.13;31.23;;;;;;;;;;5074426;28;20189;-69
2024/03/09 06:37:59;;;;;;;53.28;32.13;;;;;;;;;;5074630;28;20688;-69
2024/03/09 06:40:26;;;;;;;52.50;29.95;;;;;;;;;;5074125;28;20619;-69
2024/03/09 06:42:59;;;;;;;58.28;31.60;;;;;;;;;;5074413;28;20191;-69
2024/03/09 06:45:26;;;;;;;54.63;30.40;;;;;;;;;;5074335;28;20189;-69
2024/03/09 06:47:52;;;;;;;50.15;31.48;;;;;;;;;;5074200;28;20272;-69
2024/03/09 06:50:19;;;;;;;55.85;32.72;;;;;;;;;;5074083;28;20228;-69
2024/03/09 06:52:46;;;;;;;52.75;31.40;;;;;;;;;;5073983;28;20314;-69
2024/03/09 06:55:14;;;;;;;48.35;30.70;;;;;;;;;;5073846;28;20201;-69
2024/03/09 06:57:41;;;;;;;54.78;32.08;;;;;;;;;;5074127;28;20190;-69
2024/03/09 07:00:13;;;;;;;52.03;31.35;;;;;;;;;;5073818;28;20656;-69
2024/03/09 07:02:41;;;;;;;54.35;31.33;;;;;;;;;;5073752;28;20644;-69
2024/03/09 07:05:10;;;;;;;60.65;31.30;;;;;;;;;;5073759;28;20185;-69
2024/03/09 07:07:37;;;;;;;50.42;30.52;;;;;;;;;;5073665;28;20193;-69
2024/03/09 07:10:07;;;;;;;58.35;31.10;;;;;;;;;;5073918;28;20234;-69
2024/03/09 07:12:37;;;;;;;56.47;32.10;;;;;;;;;;5073646;28;20634;-69
2024/03/09 07:15:06;;;;;;;52.50;30.30;;;;;;;;;;5073397;28;20189;-69
2024/03/09 07:17:35;;;;;;;58.60;33.05;;;;;;;;;;5073331;28;20192;-69
2024/03/09 07:20:10;;;;;;;53.65;31.80;;;;;;;;;;5073436;28;20193;-69
2024/03/09 07:22:38;;;;;;;52.20;30.50;;;;;;;;;;5073680;28;20266;-69
2024/03/09 07:25:05;;;;;;;51.63;30.77;;;;;;;;;;5073636;28;20272;-69
2024/03/09 07:27:32;;;;;;;47.42;30.38;;;;;;;;;;5073436;28;20232;-69
2024/03/09 07:30:01;;;;;;;50.83;29.92;;;;;;;;;;5073355;28;20291;-69
2024/03/09 07:32:29;;;;;;;47.42;30.48;;;;;;;;;;5073137;28;20262;-69
2024/03/09 07:34:58;;;;;;;48.67;28.85;;;;;;;;;;5073191;28;20255;-69
2024/03/09 07:37:25;;;;;;;49.55;29.30;;;;;;;;;;5073175;28;20649;-69
2024/03/09 07:39:51;;;;;;;48.17;30.67;;;;;;;;;;5073114;28;20308;-69
2024/03/09 07:42:18;;;;;;;50.97;29.63;;;;;;;;;;5073168;28;20281;-69
2024/03/09 07:44:46;;;;;;;55.70;31.98;;;;;;;;;;5073189;28;20188;-69
2024/03/09 07:47:13;;;;;;;58.15;32.08;;;;;;;;;;5072982;28;20196;-69
2024/03/09 07:49:40;;;;;;;60.17;31.20;;;;;;;;;;5073008;28;20699;-69
2024/03/09 07:52:09;;;;;;;51.10;30.20;;;;;;;;;;5073071;28;20301;-69
2024/03/09 07:54:37;;;;;;;52.63;29.33;;;;;;;;;;5073080;28;20242;-69
2024/03/09 07:57:05;;;;;;;47.63;29.77;;;;;;;;;;5073003;28;20193;-69
2024/03/09 07:59:31;;;;;;;50.22;30.55;;;;;;;;;;5072849;28;20201;-68
2024/03/09 08:01:58;;;;;;;53.75;30.88;;;;;;;;;;5073111;28;20280;-69
2024/03/09 08:04:26;;;;;;;52.88;31.52;;;;;;;;;;5072872;28;20253;-69
2024/03/09 08:06:54;;;;;;;48.15;29.15;;;;;;;;;;5072972;28;20185;-70
2024/03/09 08:09:23;;;;;;;48.25;28.83;;;;;;;;;;5072792;28;20185;-69
2024/03/09 08:11:50;;;;;;;49.83;29.27;;;;;;;;;;5072694;28;20190;-69
2024/03/09 08:14:18;;;;;;;51.78;29.33;;;;;;;;;;5072760;28;20272;-69
2024/03/09 08:16:45;;;;;;;48.58;29.08;;;;;;;;;;5072935;28;20193;-69
2024/03/09 08:19:13;;;;;;;53.22;29.60;;;;;;;;;;5072838;28;20276;-69
2024/03/09 08:21:40;;;;;;;48.72;27.85;;;;;;;;;;5072783;28;20580;-69
2024/03/09 08:24:07;;;;;;;43.00;27.67;;;;;;;;;;5072623;28;20229;-69
2024/03/09 08:26:35;;;;;;;47.30;28.83;;;;;;;;;;5074988;28;20276;-69
2024/03/09 08:29:02;;;;;;;43.55;27.52;;;;;;;;;;5076652;28;20288;-69
2024/03/09 08:31:30;;;;;;;41.13;26.55;;;;;;;;;;5076876;28;20246;-70
2024/03/09 08:33:57;;;;;;;45.92;29.20;;;;;;;;;;5076694;28;20224;-69
2024/03/09 08:36:26;;;;;;;43.75;27.40;;;;;;;;;;5076681;28;20544;-69
2024/03/09 08:38:53;;;;;;;45.92;28.98;;;;;;;;;;5076301;28;20311;-69
2024/03/09 08:41:22;;;;;;;47.80;29.20;;;;;;;;;;5076446;28;20648;-69
2024/03/09 08:43:51;;;;;;;48.08;27.95;;;;;;;;;;5076619;28;20186;-69
2024/03/09 08:46:18;;;;;;;46.63;27.80;;;;;;;;;;5076624;28;20189;-69
2024/03/09 08:48:45;;;;;;;48.08;28.23;;;;;;;;;;5076452;28;20606;-69
2024/03/09 08:51:12;;;;;;;46.05;28.40;;;;;;;;;;5076380;28;20606;-69
2024/03/09 08:53:39;;;;;;;45.10;28.48;;;;;;;;;;5076255;28;20217;-69
2024/03/09 08:56:06;;;;;;;48.67;27.92;;;;;;;;;;5076214;28;20657;-69
2024/03/09 08:58:34;;;;;;;43.10;27.95;;;;;;;;;;5076343;28;20276;-69
2024/03/09 09:01:04;;;;;;;42.88;27.88;;;;;;;;;;5076201;28;20607;-69
2024/03/09 09:03:31;;;;;;;45.00;29.40;;;;;;;;;;5076219;28;20193;-69
2024/03/09 09:05:58;;;;;;;47.97;27.83;;;;;;;;;;5075964;28;20629;-69
2024/03/09 09:08:28;;;;;;;46.13;28.20;;;;;;;;;;5075881;28;20200;-69
2024/03/09 09:10:55;;;;;;;40.97;27.27;;;;;;;;;;5076320;28;20502;-69
2024/03/09 09:13:22;;;;;;;43.83;27.07;;;;;;;;;;5075932;28;20759;-69
2024/03/09 09:15:51;;;;;;;41.38;27.35;;;;;;;;;;5075922;28;20447;-69
2024/03/09 09:18:20;;;;;;;40.50;27.02;;;;;;;;;;5075839;28;20225;-69
2024/03/09 09:20:48;;;;;;;46.25;28.60;;;;;;;;;;5075788;28;20276;-69
2024/03/09 09:23:15;;;;;;;39.73;27.23;;;;;;;;;;5075717;28;20216;-69
2024/03/09 09:25:42;;;;;;;41.53;26.67;;;;;;;;;;5075746;28;20875;-70
2024/03/09 09:28:09;;;;;;;37.07;24.50;;;;;;;;;;5075589;28;21033;-69
2024/03/09 09:30:36;;;;;;;37.00;23.97;;;;;;;;;;5075596;28;20857;-69
2024/03/09 09:33:03;;;;;;;44.03;25.43;;;;;;;;;;5075475;28;20564;-69
2024/03/09 09:35:31;;;;;;;39.05;24.45;;;;;;;;;;5075459;28;20534;-69
2024/03/09 09:37:59;;;;;;;38.57;24.73;;;;;;;;;;5075667;28;20217;-69
2024/03/09 09:40:26;;;;;;;41.43;27.10;;;;;;;;;;5075367;28;20554;-69
2024/03/09 09:42:53;;;;;;;39.58;24.92;;;;;;;;;;5075412;28;20535;-69
2024/03/09 09:45:22;;;;;;;36.87;24.40;;;;;;;;;;5075335;28;20280;-70
2024/03/09 09:47:50;;;;;;;38.20;25.50;;;;;;;;;;5075343;28;20576;-69
2024/03/09 09:50:18;;;;;;;37.40;25.00;;;;;;;;;;5075085;28;20570;-69
2024/03/09 09:52:47;;;;;;;37.57;24.60;;;;;;;;;;5075337;28;20497;-70
2024/03/09 09:55:15;;;;;;;39.20;26.07;;;;;;;;;;5075173;28;20939;-69
2024/03/09 09:57:46;;;;;;;35.13;24.07;;;;;;;;;;5075154;28;20834;-69
2024/03/09 10:00:13;;;;;;;40.13;25.23;;;;;;;;;;5075064;28;20443;-69
2024/03/09 10:02:40;;;;;;;40.57;24.93;;;;;;;;;;5074947;28;20530;-69
2024/03/09 10:05:12;;;;;;;37.43;25.07;;;;;;;;;;5075098;28;20534;-69
2024/03/09 10:07:39;;;;;;;35.50;25.37;;;;;;;;;;5075031;28;20497;-69
2024/03/09 10:10:19;;;;;;;36.60;24.53;;;;;;;;;;5074950;28;20526;-69
2024/03/09 10:12:46;;;;;;;34.90;24.13;;;;;;;;;;5074796;28;20448;-69
2024/03/09 10:15:14;;;;;;;37.20;23.57;;;;;;;;;;5074594;28;20450;-69
2024/03/09 10:17:43;;;;;;;33.30;22.60;;;;;;;;;;5074939;28;20447;-69
2024/03/09 10:20:12;;;;;;;34.20;22.60;;;;;;;;;;5074753;28;20450;-69
2024/03/09 10:22:39;;;;;;;33.50;22.37;;;;;;;;;;5074657;28;20440;-69
2024/03/09 10:25:08;;;;;;;32.80;22.90;;;;;;;;;;5074666;28;20893;-69
2024/03/09 10:27:36;;;;;;;33.20;22.10;;;;;;;;;;5074476;28;20807;-69
2024/03/09 10:30:10;;;;;;;31.20;22.10;;;;;;;;;;5074663;28;20538;-69
2024/03/09 10:32:39;;;;;;;31.33;21.37;;;;;;;;;;5074397;28;20440;-69
2024/03/09 10:35:09;;;;;;;30.77;20.47;;;;;;;;;;5074499;28;20933;-69
2024/03/09 10:37:38;;;;;;;32.50;20.97;;;;;;;;;;5074409;28;20507;-69
2024/03/09 10:40:06;;;;;;;32.03;20.63;;;;;;;;;;5074061;28;20477;-69
2024/03/09 10:42:34;;;;;;;29.00;20.83;;;;;;;;;;5074403;28;20531;-69
2024/03/09 10:45:03;;;;;;;35.37;23.07;;;;;;;;;;5074307;28;20894;-69
2024/03/09 10:47:31;;;;;;;28.57;20.30;;;;;;;;;;5073946;28;20935;-69
2024/03/09 10:50:00;;;;;;;30.90;21.77;;;;;;;;;;5073412;28;20501;-69
2024/03/09 10:52:29;;;;;;;28.53;20.27;;;;;;;;;;5073842;28;20866;-69
2024/03/09 10:55:01;;;;;;;32.77;22.50;;;;;;;;;;5073821;28;20501;-69
2024/03/09 10:57:30;;;;;;;28.50;20.50;;;;;;;;;;5074135;28;20530;-69
2024/03/09 10:59:58;;;;;;;29.40;21.70;;;;;;;;;;5073729;28;20981;-69
2024/03/09 11:02:27;;;;;;;24.20;18.70;;;;;;;;;;5073730;28;20452;-69
2024/03/09 11:04:54;;;;;;;25.93;17.93;;;;;;;;;;5073666;28;20454;-69
2024/03/09 11:07:22;;;;;;;21.03;17.17;;;;;;;;;;5073779;28;20543;-69
2024/03/09 11:09:50;;;;;;;21.77;16.37;;;;;;;;;;5073939;28;20469;-69
2024/03/09 11:12:19;;;;;;;17.00;14.23;;;;;;;;;;5073720;28;20476;-70
2024/03/09 11:14:52;;;;;;;25.70;17.80;;;;;;;;;;5073625;28;20490;-69
2024/03/09 11:17:21;;;;;;;23.47;16.83;;;;;;;;;;5073636;28;20447;-69
2024/03/09 11:19:52;;;;;;;22.07;15.90;;;;;;;;;;5073511;28;20853;-69
2024/03/09 11:22:33;;;;;;;21.97;16.67;;;;;;;;;;5073648;28;20447;-70
2024/03/09 11:25:01;;;;;;;28.00;16.10;;;;;;;;;;5073315;28;20514;-69
2024/03/09 11:27:31;;;;;;;21.20;15.20;;;;;;;;;;5073150;28;20445;-69
2024/03/09 11:29:59;;;;;;;20.30;15.53;;;;;;;;;;5073841;28;20443;-69
2024/03/09 11:32:28;;;;;;;18.70;15.20;;;;;;;;;;5073210;28;20526;-70
2024/03/09 11:35:18;;;;;;;20.27;15.20;;;;;;;;;;5073428;28;20488;-69
2024/03/09 11:37:50;;;;;;;17.97;13.00;;;;;;;;;;5073044;28;20803;-69
2024/03/09 11:40:18;;;;;;;19.83;14.70;;;;;;;;;;5072964;28;20865;-69
2024/03/09 11:42:45;;;;;;;18.00;14.90;;;;;;;;;;5072938;28;20463;-69
2024/03/09 11:45:13;;;;;;;20.07;15.80;;;;;;;;;;5073424;28;20483;-70
2024/03/09 11:47:40;;;;;;;18.43;14.20;;;;;;;;;;5073203;28;20811;-70
2024/03/09 11:50:08;;;;;;;17.77;12.60;;;;;;;;;;5073195;28;21010;-69
2024/03/09 11:52:34;;;;;;;17.27;11.77;;;;;;;;;;5072967;28;20875;-70
2024/03/09 11:55:03;;;;;;;16.50;12.27;;;;;;;;;;5072831;28;20479;-70
2024/03/09 11:57:32;;;;;;;19.70;12.83;;;;;;;;;;5073102;28;20500;-70
2024/03/09 11:59:59;;;;;;;17.53;13.70;;;;;;;;;;5072337;28;20448;-70
2024/03/09 12:02:26;;;;;;;20.90;13.17;;;;;;;;;;5072629;28;20958;-70
2024/03/09 12:04:57;;;;;;;21.90;13.77;;;;;;;;;;5072885;28;20446;-70
2024/03/09 12:07:24;;;;;;;17.57;13.47;;;;;;;;;;5072852;28;20815;-69
2024/03/09 12:09:54;;;;;;;20.57;14.80;;;;;;;;;;5072759;28;20449;-69
2024/03/09 12:12:22;;;;;;;15.70;12.87;;;;;;;;;;5072980;28;20479;-70
2024/03/09 12:14:49;;;;;;;22.00;14.70;;;;;;;;;;5072827;28;20578;-69
2024/03/09 12:17:16;;;;;;;21.17;14.00;;;;;;;;;;5072716;28;20927;-69
2024/03/09 12:19:44;;;;;;;21.33;13.90;;;;;;;;;;5072722;28;20479;-70
2024/03/09 12:22:11;;;;;;;21.70;14.60;;;;;;;;;;5072589;28;20493;-69
2024/03/09 12:24:38;;;;;;;24.30;15.97;;;;;;;;;;5072867;28;20517;-70
2024/03/09 12:27:08;;;;;;;20.30;14.67;;;;;;;;;;5072524;28;20538;-70
2024/03/09 12:29:38;;;;;;;19.87;14.83;;;;;;;;;;5072672;28;20505;-70
2024/03/09 12:32:05;;;;;;;21.93;15.17;;;;;;;;;;5072706;28;20439;-70
2024/03/09 12:34:33;;;;;;;19.37;14.80;;;;;;;;;;5072371;28;20566;-71
2024/03/09 12:37:00;;;;;;;21.00;14.77;;;;;;;;;;5072599;28;20515;-70
2024/03/09 12:39:28;;;;;;;20.43;15.27;;;;;;;;;;5072553;28;20476;-70
2024/03/09 12:41:56;;;;;;;20.97;15.70;;;;;;;;;;5072903;28;20471;-70
2024/03/09 12:44:24;;;;;;;20.10;15.10;;;;;;;;;;5072581;28;20479;-70
2024/03/09 12:46:55;;;;;;;24.67;17.00;;;;;;;;;;5072519;28;20485;-70
2024/03/09 12:49:22;;;;;;;19.17;14.40;;;;;;;;;;5072280;28;20541;-70
2024/03/09 12:51:50;;;;;;;20.03;15.10;;;;;;;;;;5072508;28;20486;-70
2024/03/09 12:54:18;;;;;;;20.30;15.50;;;;;;;;;;5072444;28;20518;-70
2024/03/09 12:56:47;;;;;;;18.50;14.60;;;;;;;;;;5072429;28;20483;-70
2024/03/09 12:59:20;;;;;;;23.47;15.67;;;;;;;;;;5072437;28;20444;-70
2024/03/09 13:01:47;;;;;;;19.87;14.93;;;;;;;;;;5072161;28;20489;-70
2024/03/09 13:04:18;;;;;;;17.60;13.83;;;;;;;;;;5072452;28;20534;-70
2024/03/09 13:06:45;;;;;;;19.67;15.20;;;;;;;;;;5072277;28;20931;-70
2024/03/09 13:09:14;;;;;;;21.73;15.00;;;;;;;;;;5072356;28;20475;-70
2024/03/09 13:11:41;;;;;;;20.03;15.93;;;;;;;;;;5073196;28;20882;-70
2024/03/09 13:14:08;;;;;;;20.20;15.77;;;;;;;;;;5075896;28;20808;-70
2024/03/09 13:16:35;;;;;;;19.50;15.53;;;;;;;;;;5076069;28;20449;-70
2024/03/09 13:19:04;;;;;;;22.90;15.20;;;;;;;;;;5075853;28;20505;-70
2024/03/09 13:21:32;;;;;;;19.80;15.10;;;;;;;;;;5075972;28;20504;-70
2024/03/09 13:23:59;;;;;;;19.27;15.27;;;;;;;;;;5075899;28;20451;-70
2024/03/09 13:26:27;;;;;;;19.60;15.63;;;;;;;;;;5075723;28;20440;-70
2024/03/09 13:28:54;;;;;;;19.97;14.83;;;;;;;;;;5075603;28;20450;-70
2024/03/09 13:31:23;;;;;;;16.60;13.83;;;;;;;;;;5075845;28;20439;-70
2024/03/09 13:33:50;;;;;;;20.93;14.80;;;;;;;;;;5075620;28;20444;-70
2024/03/09 13:36:17;;;;;;;20.00;15.03;;;;;;;;;;5075559;28;20517;-70
2024/03/09 13:38:47;;;;;;;19.67;14.90;;;;;;;;;;5075374;28;20783;-70
2024/03/09 13:41:14;;;;;;;21.50;15.50;;;;;;;;;;5075400;28;20447;-70
2024/03/09 13:43:43;;;;;;;19.73;15.27;;;;;;;;;;5075595;28;20467;-70
2024/03/09 13:46:11;;;;;;;22.00;16.30;;;;;;;;;;5075524;28;20471;-69
2024/03/09 13:48:40;;;;;;;21.97;15.90;;;;;;;;;;5075487;28;20885;-70
2024/03/09 13:51:09;;;;;;;20.60;15.40;;;;;;;;;;5075356;28;20505;-70
2024/03/09 13:53:42;;;;;;;20.77;15.80;;;;;;;;;;5075177;28;20486;-70
2024/03/09 13:56:14;;;;;;;20.93;15.57;;;;;;;;;;5075186;28;20471;-70
2024/03/09 13:58:41;;;;;;;19.83;14.37;;;;;;;;;;5075230;28;20450;-69
2024/03/09 14:01:10;;;;;;;22.07;16.80;;;;;;;;;;5075189;28;20446;-70
2024/03/09 14:03:37;;;;;;;21.50;15.43;;;;;;;;;;5075069;28;20499;-70
2024/03/09 14:06:06;;;;;;;22.27;14.43;;;;;;;;;;5074989;28;20450;-70
2024/03/09 14:08:34;;;;;;;20.83;14.30;;;;;;;;;;5074849;28;20445;-70
2024/03/09 14:11:01;;;;;;;23.50;15.50;;;;;;;;;;5075103;28;20514;-70
2024/03/09 14:13:29;;;;;;;22.37;14.97;;;;;;;;;;5074973;28;20444;-70
2024/03/09 14:15:56;;;;;;;19.43;14.97;;;;;;;;;;5074877;28;20842;-70
2024/03/09 14:18:25;;;;;;;16.33;14.40;;;;;;;;;;5074830;28;20508;-70
2024/03/09 14:20:52;;;;;;;21.97;13.97;;;;;;;;;;5074693;28;20443;-70
2024/03/09 14:23:22;;;;;;;20.33;15.03;;;;;;;;;;5073866;28;20804;-70